createdAt,value
2022-07-30T00:07:14.611Z,8389.32617
2022-07-30T00:22:17.065Z,8533.00977
2022-07-30T00:37:19.368Z,8383.9375
2022-07-30T00:52:21.646Z,8169.31055
2022-07-30T01:07:24.106Z,7669.11182
2022-07-30T01:22:30.612Z,7362.88623
2022-07-30T01:37:33.307Z,7072.8252
2022-07-30T01:52:35.583Z,6549.27783
2022-07-30T02:07:37.922Z,1371.28027
2022-07-30T02:22:40.222Z,1199.75806
2022-07-30T02:37:44.122Z,975.25238
2022-07-30T02:52:46.832Z,709.43774
2022-07-30T03:07:49.100Z,429.25473
2022-07-30T03:22:51.446Z,193.07483
2022-07-30T03:37:53.765Z,64.65762
2022-07-30T03:52:56.089Z,11.67429
2022-07-30T04:07:58.403Z,0.89802
2022-07-30T04:23:02.207Z,0
2022-07-30T04:38:04.489Z,0
2022-07-30T04:53:06.838Z,0
2022-07-30T05:08:09.068Z,0
2022-07-30T05:23:11.379Z,0
2022-07-30T05:38:13.662Z,0
2022-07-30T05:53:15.983Z,0
2022-07-30T06:08:18.393Z,0
2022-07-30T06:23:20.698Z,0
2022-07-30T06:38:23.183Z,0
2022-07-30T06:53:25.562Z,0
2022-07-30T07:08:27.840Z,0
2022-07-30T07:23:41.668Z,0
2022-07-30T07:38:45.000Z,0
2022-07-30T07:54:05.731Z,0
2022-07-30T08:09:22.539Z,0
2022-07-30T08:24:24.727Z,0
2022-07-30T08:39:26.947Z,0
2022-07-30T08:54:29.212Z,0
2022-07-30T09:09:31.554Z,0
2022-07-30T09:24:34.492Z,0
2022-07-30T09:39:36.789Z,0
2022-07-30T09:54:39.038Z,0
2022-07-30T10:09:54.341Z,0
2022-07-30T10:24:56.579Z,0
2022-07-30T10:39:59.622Z,0
2022-07-30T10:55:01.972Z,0
2022-07-30T11:10:09.630Z,0
2022-07-30T11:25:13.066Z,0
2022-07-30T11:40:15.910Z,0.89802
2022-07-30T11:55:28.655Z,11.67429
2022-07-30T12:10:31.003Z,66.45367
2022-07-30T12:25:33.347Z,200.25902
2022-07-30T12:40:35.671Z,475.9519
2022-07-30T12:55:38.166Z,847.73322
2022-07-30T13:10:40.458Z,1802.33105
2022-07-30T13:25:42.781Z,2692.27148
2022-07-30T13:40:45.067Z,3629.80688
2022-07-30T13:55:47.421Z,4477.54004
2022-07-30T14:10:49.710Z,5079.21533
2022-07-30T14:25:52.287Z,6243.9502
2022-07-30T14:40:54.551Z,5503.97949
2022-07-30T14:55:56.909Z,5596.47607
2022-07-30T15:11:02.596Z,5701.54492
2022-07-30T15:26:08.454Z,6326.56836
2022-07-30T15:41:13.712Z,6198.15088
2022-07-30T15:56:16.394Z,6349.01904
2022-07-30T16:11:18.703Z,6395.71582
2022-07-30T16:26:20.949Z,5711.42285
2022-07-30T16:41:23.237Z,6225.98975
2022-07-30T16:56:25.556Z,5555.16699
2022-07-30T17:11:46.954Z,5560.55518
2022-07-30T17:26:54.479Z,5198.65186
2022-07-30T17:42:01.976Z,4922.95898
2022-07-30T17:57:05.487Z,4907.69287
2022-07-30T18:12:07.781Z,4907.69287
2022-07-30T18:27:10.052Z,4752.33496
2022-07-30T18:42:12.379Z,4464.96777
2022-07-30T18:57:14.820Z,4446.10938
2022-07-30T19:12:17.129Z,4235.97217
2022-07-30T19:27:19.424Z,4145.27197
2022-07-30T19:42:21.714Z,4183.88672
2022-07-30T19:57:24.049Z,4252.13623
2022-07-30T20:12:56.011Z,4248.54443
2022-07-30T20:27:59.249Z,4411.08643
2022-07-30T20:43:01.758Z,4626.61182
2022-07-30T20:58:13.891Z,4672.41113
2022-07-30T21:13:19.088Z,4623.91748
2022-07-30T21:28:27.177Z,4699.35156
2022-07-30T21:43:30.558Z,4555.66797
2022-07-30T21:58:36.071Z,5332.45752
2022-07-30T23:12:28.467Z,5635.09082
2022-07-30T23:27:32.755Z,7244.34717
2022-07-30T23:42:35.019Z,7658.33545
2022-07-30T23:57:37.428Z,8027.42285
